createdAt,value
2023-02-11T00:01:19.483Z,21.58
2023-02-11T00:03:52.901Z,22.83
2023-02-11T00:06:28.131Z,32.28
2023-02-11T00:09:01.190Z,27.05
2023-02-11T00:11:33.809Z,18.13
2023-02-11T00:14:08.509Z,25.35
2023-02-11T00:16:41.232Z,25.17
2023-02-11T00:19:14.191Z,21.45
2023-02-11T00:21:46.798Z,17.83
2023-02-11T00:24:19.756Z,13.98
2023-02-11T00:26:52.227Z,23.98
2023-02-11T00:29:25.422Z,16.45
2023-02-11T00:31:58.169Z,18.10
2023-02-11T00:34:33.989Z,19.25
2023-02-11T00:37:08.070Z,20.33
2023-02-11T00:39:40.975Z,24.10
2023-02-11T00:42:20.093Z,18.58
2023-02-11T00:44:58.386Z,21.05
2023-02-11T00:47:31.208Z,27.13
2023-02-11T00:50:06.435Z,17.40
2023-02-11T00:52:39.194Z,15.30
2023-02-11T00:55:12.260Z,21.95
2023-02-11T00:57:45.890Z,23.95
2023-02-11T01:00:24.726Z,20.70
2023-02-11T01:02:57.368Z,23.70
2023-02-11T01:05:30.910Z,14.55
2023-02-11T01:08:03.529Z,32.72
2023-02-11T01:10:36.350Z,14.55
2023-02-11T01:13:09.040Z,18.67
2023-02-11T01:15:41.990Z,20.63
2023-02-11T01:18:20.407Z,26.75
2023-02-11T01:20:56.479Z,21.13
2023-02-11T01:23:34.958Z,27.95
2023-02-11T01:26:08.194Z,24.55
2023-02-11T01:28:40.808Z,21.63
2023-02-11T01:31:18.316Z,17.52
2023-02-11T01:33:53.748Z,23.38
2023-02-11T01:36:27.803Z,23.02
2023-02-11T01:39:00.441Z,15.15
2023-02-11T01:41:33.402Z,18.80
2023-02-11T01:44:45.534Z,26.63
2023-02-11T01:47:18.853Z,27.73
2023-02-11T01:49:56.376Z,25.30
2023-02-11T01:52:35.228Z,17.77
2023-02-11T01:55:29.602Z,19.65
2023-02-11T01:58:05.469Z,21.02
2023-02-11T02:00:39.386Z,21.42
2023-02-11T02:03:18.872Z,11.60
2023-02-11T02:06:03.943Z,20.88
2023-02-11T02:08:36.906Z,27.17
2023-02-11T02:11:09.465Z,19.85
2023-02-11T02:13:43.377Z,19.80
2023-02-11T02:16:17.556Z,21.35
2023-02-11T02:18:59.425Z,15.75
2023-02-11T02:21:34.926Z,13.95
2023-02-11T02:24:31.119Z,20.70
2023-02-11T02:27:15.774Z,16.75
2023-02-11T02:29:55.468Z,24.27
2023-02-11T02:32:46.325Z,23.40
2023-02-11T02:35:31.482Z,16.58
2023-02-11T02:38:13.073Z,14.70
2023-02-11T02:40:48.879Z,22.38
2023-02-11T02:43:26.593Z,17.63
2023-02-11T02:46:16.055Z,18.90
2023-02-11T02:48:50.080Z,18.10
2023-02-11T02:51:38.260Z,28.10
2023-02-11T02:54:10.937Z,12.85
2023-02-11T02:56:46.940Z,23.08
2023-02-11T02:59:25.175Z,13.80
2023-02-11T03:02:06.943Z,24.17
2023-02-11T03:04:48.408Z,26.42
2023-02-11T03:09:53.633Z,22.35
2023-02-11T03:12:28.164Z,25.85
2023-02-11T03:15:02.354Z,19.52
2023-02-11T03:17:36.455Z,25.27
2023-02-11T03:20:11.017Z,18.25
2023-02-11T03:22:49.097Z,15.23
2023-02-11T03:25:23.119Z,19.55
2023-02-11T03:28:18.977Z,21.15
2023-02-11T03:30:58.655Z,22.65
2023-02-11T03:33:36.478Z,35.72
2023-02-11T03:36:15.798Z,28.00
2023-02-11T03:38:50.954Z,23.05
2023-02-11T03:41:24.563Z,52.92
2023-02-11T03:43:58.707Z,25.17
2023-02-11T03:46:32.820Z,30.08
2023-02-11T03:49:09.009Z,34.33
2023-02-11T03:51:42.065Z,21.10
2023-02-11T03:54:16.922Z,22.58
2023-02-11T03:56:54.377Z,17.10
2023-02-11T03:59:27.529Z,19.90
2023-02-11T04:02:00.608Z,19.23
2023-02-11T04:04:34.006Z,16.05
2023-02-11T04:07:06.589Z,23.17
2023-02-11T04:09:39.573Z,12.85
2023-02-11T04:12:12.201Z,15.25
2023-02-11T04:14:45.091Z,16.83
2023-02-11T04:17:17.926Z,14.52
2023-02-11T04:19:50.782Z,16.55
2023-02-11T04:22:23.357Z,18.52
2023-02-11T04:24:56.585Z,26.52
2023-02-11T04:27:29.207Z,29.13
2023-02-11T04:30:02.430Z,18.90
2023-02-11T04:32:35.031Z,22.92
2023-02-11T04:35:14.201Z,16.13
2023-02-11T04:37:46.934Z,17.27
2023-02-11T04:40:19.809Z,16.33
2023-02-11T04:42:53.057Z,20.45
2023-02-11T04:45:26.307Z,19.92
2023-02-11T04:47:58.960Z,17.33
2023-02-11T04:50:33.969Z,19.70
2023-02-11T04:53:13.853Z,32.95
2023-02-11T04:55:49.337Z,24.25
2023-02-11T04:58:22.173Z,13.48
2023-02-11T05:00:55.234Z,17.80
2023-02-11T05:03:27.971Z,13.10
2023-02-11T05:06:02.682Z,15.18
2023-02-11T05:08:39.803Z,21.00
2023-02-11T05:11:15.587Z,16.10
2023-02-11T05:13:48.229Z,17.35
2023-02-11T05:16:21.466Z,19.50
2023-02-11T05:18:55.922Z,21.67
2023-02-11T05:21:28.909Z,16.10
2023-02-11T05:24:01.601Z,15.00
2023-02-11T05:26:34.567Z,18.48
2023-02-11T05:29:07.146Z,19.52
2023-02-11T05:31:39.991Z,14.07
2023-02-11T05:34:12.571Z,16.70
2023-02-11T05:36:45.474Z,10.75
2023-02-11T05:39:18.099Z,23.58
2023-02-11T05:41:50.923Z,24.80
2023-02-11T05:44:23.480Z,15.40
2023-02-11T05:46:56.450Z,25.40
2023-02-11T05:49:29.187Z,20.92
2023-02-11T05:52:02.060Z,17.67
2023-02-11T05:54:34.948Z,19.75
2023-02-11T05:57:07.873Z,13.02
2023-02-11T05:59:40.563Z,27.58
2023-02-11T06:02:13.460Z,15.05
2023-02-11T06:04:46.036Z,16.77
2023-02-11T06:07:20.050Z,26.00
2023-02-11T06:09:52.815Z,23.92
2023-02-11T06:12:25.762Z,15.25
2023-02-11T06:14:58.301Z,27.00
2023-02-11T06:17:33.879Z,27.38
2023-02-11T06:20:07.420Z,19.42
2023-02-11T06:22:40.362Z,26.23
2023-02-11T06:25:13.641Z,21.63
2023-02-11T06:27:46.560Z,28.25
2023-02-11T06:30:19.144Z,17.92
2023-02-11T06:32:51.995Z,20.63
2023-02-11T06:35:24.622Z,17.05
2023-02-11T06:37:57.454Z,20.20
2023-02-11T06:40:29.891Z,25.00
2023-02-11T06:43:02.771Z,22.67
2023-02-11T06:45:35.388Z,20.92
2023-02-11T06:48:08.854Z,20.83
2023-02-11T06:50:41.374Z,25.23
2023-02-11T06:53:14.295Z,20.40
2023-02-11T06:55:46.806Z,28.63
2023-02-11T06:58:19.669Z,18.77
2023-02-11T07:00:52.651Z,21.98
2023-02-11T07:03:26.015Z,18.15
2023-02-11T07:05:58.437Z,17.35
2023-02-11T07:08:31.658Z,20.70
2023-02-11T07:11:14.369Z,23.60
2023-02-11T07:13:47.810Z,19.67
2023-02-11T07:16:20.757Z,21.88
2023-02-11T07:18:54.154Z,19.88
2023-02-11T07:21:26.929Z,28.15
2023-02-11T07:23:59.953Z,23.95
2023-02-11T07:26:32.406Z,26.67
2023-02-11T07:29:05.856Z,18.10
2023-02-11T07:31:38.508Z,21.05
2023-02-11T07:34:11.625Z,24.23
2023-02-11T07:36:46.155Z,21.15
2023-02-11T07:39:27.492Z,26.55
2023-02-11T07:42:01.829Z,16.10
2023-02-11T07:44:35.426Z,23.40
2023-02-11T07:47:08.020Z,23.52
2023-02-11T07:49:40.991Z,23.02
2023-02-11T07:52:13.505Z,20.90
2023-02-11T07:54:48.235Z,15.48
2023-02-11T07:57:23.964Z,22.98
2023-02-11T07:59:56.827Z,23.08
2023-02-11T08:02:29.444Z,19.20
2023-02-11T08:05:02.393Z,17.02
2023-02-11T08:07:35.053Z,31.48
2023-02-11T08:10:08.089Z,25.20
2023-02-11T08:12:41.094Z,26.58
2023-02-11T08:15:14.079Z,16.48
2023-02-11T08:17:46.637Z,20.30
2023-02-11T08:20:19.520Z,21.60
2023-02-11T08:22:52.035Z,22.67
2023-02-11T08:25:25.253Z,27.23
2023-02-11T08:27:58.445Z,22.50
2023-02-11T08:30:31.382Z,24.30
2023-02-11T08:33:04.011Z,17.92
2023-02-11T08:35:37.601Z,25.95
2023-02-11T08:38:10.066Z,25.95
2023-02-11T08:40:42.969Z,23.05
2023-02-11T08:43:15.630Z,25.95
2023-02-11T08:45:49.002Z,28.88
2023-02-11T08:48:21.793Z,15.23
2023-02-11T08:50:57.844Z,24.63
2023-02-11T08:53:30.498Z,20.50
2023-02-11T08:56:03.592Z,21.80
2023-02-11T08:58:36.104Z,31.33
2023-02-11T09:01:22.646Z,22.20
2023-02-11T09:03:56.384Z,30.27
2023-02-11T09:06:29.790Z,24.35
2023-02-11T09:09:02.342Z,47.92
2023-02-11T09:11:36.561Z,35.15
2023-02-11T09:14:13.262Z,32.13
2023-02-11T09:16:46.456Z,18.02
2023-02-11T09:19:19.672Z,36.97
2023-02-11T09:21:52.560Z,31.52
2023-02-11T09:24:25.122Z,24.73
2023-02-11T09:26:58.335Z,34.03
2023-02-11T09:29:30.772Z,22.60
2023-02-11T09:32:03.778Z,22.90
2023-02-11T09:34:36.424Z,36.15
2023-02-11T09:37:09.399Z,31.63
2023-02-11T09:39:41.944Z,26.10
2023-02-11T09:42:30.822Z,28.83
2023-02-11T09:45:04.716Z,25.95
2023-02-11T09:47:43.529Z,26.98
2023-02-11T09:50:34.283Z,25.42
2023-02-11T09:53:12.144Z,25.70
2023-02-11T09:55:46.906Z,23.45
2023-02-11T09:58:23.101Z,25.65
2023-02-11T10:01:14.271Z,31.10
2023-02-11T10:03:47.177Z,26.42
2023-02-11T10:06:20.353Z,16.20
2023-02-11T10:08:53.277Z,23.27
2023-02-11T10:11:43.951Z,20.60
2023-02-11T10:14:19.569Z,20.10
2023-02-11T10:16:59.705Z,23.90
2023-02-11T10:19:41.834Z,23.25
2023-02-11T10:22:14.325Z,24.88
2023-02-11T10:25:00.687Z,23.88
2023-02-11T10:27:34.536Z,19.48
2023-02-11T10:30:16.489Z,26.92
2023-02-11T10:33:02.542Z,23.92
2023-02-11T10:35:35.388Z,26.75
2023-02-11T10:38:08.942Z,15.98
2023-02-11T10:40:42.308Z,19.83
2023-02-11T10:43:16.521Z,28.05
2023-02-11T10:45:50.859Z,30.67
2023-02-11T10:48:38.764Z,38.10
2023-02-11T10:51:14.279Z,21.95
2023-02-11T10:53:48.299Z,22.40
2023-02-11T10:56:26.484Z,22.83
2023-02-11T10:59:15.793Z,19.45
2023-02-11T11:01:53.627Z,19.77
2023-02-11T11:04:38.891Z,24.95
2023-02-11T11:07:25.389Z,16.88
2023-02-11T11:10:00.709Z,19.83
2023-02-11T11:12:47.779Z,17.35
2023-02-11T11:15:27.479Z,24.25
2023-02-11T11:18:23.385Z,22.30
2023-02-11T11:20:58.943Z,19.35
2023-02-11T11:23:32.600Z,18.48
2023-02-11T11:26:10.758Z,23.30
2023-02-11T11:28:54.675Z,12.35
2023-02-11T11:31:31.164Z,20.58
2023-02-11T11:34:16.311Z,21.65
2023-02-11T11:36:50.242Z,22.58
2023-02-11T11:39:24.605Z,19.05
2023-02-11T11:42:01.468Z,13.45
2023-02-11T11:44:35.865Z,25.35
2023-02-11T11:47:14.234Z,11.23
2023-02-11T11:50:06.206Z,19.00
2023-02-11T11:52:52.278Z,18.10
2023-02-11T11:55:27.389Z,20.90
2023-02-11T11:57:59.969Z,15.70
2023-02-11T12:00:36.620Z,14.02
2023-02-11T12:03:37.517Z,16.70
2023-02-11T12:06:28.996Z,20.55
2023-02-11T12:09:16.645Z,15.10
2023-02-11T12:12:07.982Z,12.00
2023-02-11T12:14:47.299Z,30.42
2023-02-11T12:17:42.914Z,35.70
2023-02-11T12:20:17.994Z,23.85
2023-02-11T12:23:01.566Z,30.17
2023-02-11T12:25:52.953Z,21.98
2023-02-11T12:28:34.037Z,24.98
2023-02-11T12:31:13.365Z,16.33
2023-02-11T12:33:55.262Z,21.05
2023-02-11T12:36:39.727Z,18.00
2023-02-11T12:39:24.510Z,16.05
2023-02-11T12:42:15.742Z,17.33
2023-02-11T12:44:52.107Z,16.75
2023-02-11T12:47:27.459Z,17.60
2023-02-11T12:50:14.570Z,22.58
2023-02-11T12:52:50.070Z,19.80
2023-02-11T12:55:24.658Z,16.95
2023-02-11T12:57:59.297Z,12.95
2023-02-11T13:00:41.110Z,21.50
2023-02-11T13:03:19.463Z,27.63
2023-02-11T13:05:54.109Z,26.80
2023-02-11T13:08:30.653Z,32.15
2023-02-11T13:11:08.276Z,23.50
2023-02-11T13:13:49.910Z,24.73
2023-02-11T13:19:07.326Z,22.67
2023-02-11T13:21:56.325Z,21.55
2023-02-11T13:24:37.726Z,24.13
2023-02-11T13:29:46.430Z,26.02
2023-02-11T13:32:19.299Z,27.58
2023-02-11T13:34:51.890Z,25.27
2023-02-11T13:37:32.522Z,22.25
2023-02-11T13:40:08.080Z,16.95
2023-02-11T13:42:51.360Z,15.43
2023-02-11T13:45:36.422Z,20.60
2023-02-11T13:48:22.664Z,23.95
2023-02-11T13:50:57.120Z,17.10
2023-02-11T13:53:30.474Z,24.30
2023-02-11T13:56:11.676Z,23.40
2023-02-11T13:58:48.831Z,30.88
2023-02-11T14:01:40.595Z,17.23
2023-02-11T14:07:42.728Z,17.60
2023-02-11T14:10:34.277Z,27.95
2023-02-11T14:13:20.100Z,15.43
2023-02-11T14:16:06.323Z,19.60
2023-02-11T14:18:44.913Z,14.95
2023-02-11T14:21:20.911Z,16.27
2023-02-11T14:23:54.806Z,22.65
2023-02-11T14:26:36.944Z,23.92
2023-02-11T14:29:24.342Z,24.45
2023-02-11T14:32:09.653Z,20.85
2023-02-11T14:34:57.368Z,17.33
2023-02-11T14:37:30.216Z,15.35
2023-02-11T14:40:05.706Z,12.07
2023-02-11T14:42:38.672Z,14.57
2023-02-11T14:45:15.712Z,16.73
2023-02-11T14:47:54.140Z,23.40
2023-02-11T14:50:28.418Z,24.20
2023-02-11T14:53:01.668Z,20.60
2023-02-11T14:55:37.851Z,18.58
2023-02-11T14:58:14.134Z,27.80
2023-02-11T15:01:01.129Z,47.22
2023-02-11T15:03:35.500Z,49.00
2023-02-11T15:06:19.405Z,30.98
2023-02-11T15:08:53.878Z,24.35
2023-02-11T15:11:27.002Z,21.65
2023-02-11T15:14:06.734Z,36.63
2023-02-11T15:16:43.852Z,22.40
2023-02-11T15:19:20.261Z,25.08
2023-02-11T15:21:53.195Z,20.42
2023-02-11T15:24:26.164Z,26.40
2023-02-11T15:27:21.316Z,22.80
2023-02-11T15:29:54.320Z,28.85
2023-02-11T15:32:27.438Z,39.13
2023-02-11T15:35:00.496Z,32.88
2023-02-11T15:37:33.386Z,70.03
2023-02-11T15:40:11.332Z,74.05
2023-02-11T15:42:58.511Z,60.70
2023-02-11T15:45:37.958Z,57.90
2023-02-11T15:48:13.814Z,60.90
2023-02-11T15:50:52.346Z,93.68
2023-02-11T15:53:31.098Z,61.17
2023-02-11T15:56:03.954Z,69.25
2023-02-11T15:58:38.099Z,61.00
2023-02-11T16:01:11.532Z,45.53
2023-02-11T16:03:44.474Z,50.60
2023-02-11T16:06:25.321Z,39.17
2023-02-11T16:08:59.202Z,74.72
2023-02-11T16:11:32.074Z,60.92
2023-02-11T16:14:21.405Z,33.47
2023-02-11T16:16:56.495Z,51.83
2023-02-11T16:19:29.097Z,30.88
2023-02-11T16:22:08.578Z,39.28
2023-02-11T16:24:41.202Z,46.05
2023-02-11T16:27:25.022Z,43.13
2023-02-11T16:29:58.891Z,23.92
2023-02-11T16:32:32.014Z,32.15
2023-02-11T16:35:05.357Z,26.88
2023-02-11T16:37:38.620Z,42.42
2023-02-11T16:40:12.209Z,47.42
2023-02-11T16:42:45.182Z,60.58
2023-02-11T16:45:17.670Z,42.33
2023-02-11T16:47:50.561Z,24.90
2023-02-11T16:50:24.129Z,30.33
2023-02-11T16:52:57.490Z,32.30
2023-02-11T16:55:30.249Z,43.30
2023-02-11T16:58:03.196Z,47.22
2023-02-11T17:00:36.595Z,42.67
2023-02-11T17:03:11.407Z,37.15
2023-02-11T17:05:54.986Z,24.80
2023-02-11T17:08:28.637Z,47.10
2023-02-11T17:11:01.113Z,46.25
2023-02-11T17:13:34.458Z,28.83
2023-02-11T17:16:11.636Z,23.15
2023-02-11T17:18:44.641Z,28.67
2023-02-11T17:21:17.444Z,40.53
2023-02-11T17:23:50.381Z,36.90
2023-02-11T17:26:22.965Z,23.98
2023-02-11T17:28:55.797Z,27.52
2023-02-11T17:31:28.382Z,27.90
2023-02-11T17:34:01.787Z,42.53
2023-02-11T17:36:34.667Z,30.42
2023-02-11T17:39:08.460Z,58.58
2023-02-11T17:41:41.091Z,97.20
2023-02-11T17:44:15.825Z,44.45
2023-02-11T17:46:48.372Z,54.33
2023-02-11T17:49:21.271Z,46.70
2023-02-11T17:51:53.785Z,45.08
2023-02-11T17:54:26.894Z,53.90
2023-02-11T17:56:59.337Z,54.95
2023-02-11T17:59:35.907Z,53.50
2023-02-11T18:02:10.935Z,46.05
2023-02-11T18:04:44.431Z,67.35
2023-02-11T18:07:17.713Z,61.85
2023-02-11T18:09:50.765Z,45.40
2023-02-11T18:12:26.600Z,50.08
2023-02-11T18:14:59.658Z,66.15
2023-02-11T18:17:32.269Z,59.15
2023-02-11T18:20:05.753Z,66.03
2023-02-11T18:22:40.498Z,55.85
2023-02-11T18:25:15.349Z,36.83
2023-02-11T18:27:47.947Z,35.70
2023-02-11T18:30:21.405Z,41.95
2023-02-11T18:32:55.430Z,42.25
2023-02-11T18:35:28.483Z,60.80
2023-02-11T18:38:00.958Z,54.22
2023-02-11T18:40:34.234Z,40.83
2023-02-11T18:43:07.116Z,45.97
2023-02-11T18:45:44.102Z,25.92
2023-02-11T18:48:17.158Z,25.88
2023-02-11T18:50:50.049Z,29.25
2023-02-11T18:53:23.121Z,48.00
2023-02-11T18:55:56.064Z,29.08
2023-02-11T18:58:28.674Z,28.25
2023-02-11T19:01:01.694Z,28.13
2023-02-11T19:03:34.369Z,36.63
2023-02-11T19:06:07.457Z,29.50
2023-02-11T19:08:40.150Z,40.85
2023-02-11T19:11:14.891Z,28.83
2023-02-11T19:13:51.693Z,23.67
2023-02-11T19:16:25.862Z,22.75
2023-02-11T19:19:00.295Z,23.85
2023-02-11T19:21:34.619Z,24.20
2023-02-11T19:24:08.106Z,24.63
2023-02-11T19:26:41.601Z,22.90
2023-02-11T19:29:14.103Z,16.90
2023-02-11T19:31:47.324Z,32.95
2023-02-11T19:34:20.434Z,20.17
2023-02-11T19:36:54.612Z,34.08
2023-02-11T19:39:27.288Z,14.75
2023-02-11T19:42:00.169Z,25.55
2023-02-11T19:44:32.869Z,23.67
2023-02-11T19:47:07.122Z,19.80
2023-02-11T19:49:39.838Z,20.40
2023-02-11T19:52:12.896Z,15.60
2023-02-11T19:54:45.429Z,20.63
2023-02-11T19:57:18.583Z,16.92
2023-02-11T19:59:51.260Z,16.02
2023-02-11T20:02:24.409Z,32.97
2023-02-11T20:04:57.231Z,17.48
2023-02-11T20:07:31.200Z,32.65
2023-02-11T20:10:03.761Z,21.58
2023-02-11T20:12:36.960Z,27.63
2023-02-11T20:15:09.827Z,22.33
2023-02-11T20:17:42.789Z,27.73
2023-02-11T20:20:15.322Z,11.15
2023-02-11T20:22:48.183Z,18.83
2023-02-11T20:25:20.877Z,21.20
2023-02-11T20:27:53.773Z,20.88
2023-02-11T20:30:26.327Z,11.32
2023-02-11T20:32:59.425Z,22.15
2023-02-11T20:35:32.062Z,19.23
2023-02-11T20:38:04.945Z,13.95
2023-02-11T20:40:38.725Z,17.83
2023-02-11T20:43:11.598Z,15.25
2023-02-11T20:45:44.231Z,12.30
2023-02-11T20:48:17.094Z,15.15
2023-02-11T20:50:49.933Z,24.52
2023-02-11T20:53:22.819Z,18.63
2023-02-11T20:55:55.316Z,17.38
2023-02-11T20:58:28.405Z,10.07
2023-02-11T21:01:16.884Z,12.68
2023-02-11T21:03:51.199Z,14.55
2023-02-11T21:06:24.780Z,21.67
2023-02-11T21:08:57.880Z,12.93
2023-02-11T21:11:31.439Z,7.95
2023-02-11T21:14:04.478Z,7.47
2023-02-11T21:16:37.303Z,7.10
2023-02-11T21:19:10.195Z,9.10
2023-02-11T21:21:43.440Z,9.15
2023-02-11T21:24:16.676Z,10.38
2023-02-11T21:26:49.252Z,7.47
2023-02-11T21:29:22.608Z,8.35
2023-02-11T21:31:55.139Z,8.13
2023-02-11T21:34:28.212Z,8.55
2023-02-11T21:37:00.793Z,23.98
2023-02-11T21:39:33.708Z,17.10
2023-02-11T21:42:06.404Z,19.13
2023-02-11T21:44:39.322Z,11.48
2023-02-11T21:47:11.914Z,13.38
2023-02-11T21:49:44.754Z,14.70
2023-02-11T21:52:17.362Z,10.27
2023-02-11T21:54:50.854Z,14.38
2023-02-11T21:57:24.684Z,14.60
2023-02-11T21:59:57.563Z,11.68
2023-02-11T22:02:30.162Z,11.23
2023-02-11T22:05:03.261Z,12.88
2023-02-11T22:07:36.625Z,14.05
2023-02-11T22:10:09.813Z,10.20
2023-02-11T22:12:42.546Z,15.48
2023-02-11T22:15:15.663Z,14.00
2023-02-11T22:17:48.203Z,11.20
2023-02-11T22:20:21.185Z,13.32
2023-02-11T22:22:53.782Z,16.67
2023-02-11T22:25:26.685Z,9.98
2023-02-11T22:27:59.667Z,17.73
2023-02-11T22:30:33.122Z,11.23
2023-02-11T22:33:06.018Z,13.07
2023-02-11T22:35:38.950Z,9.77
2023-02-11T22:38:11.535Z,15.43
2023-02-11T22:40:44.725Z,13.18
2023-02-11T22:43:17.242Z,16.55
2023-02-11T22:45:50.458Z,10.95
2023-02-11T22:48:23.305Z,18.65
2023-02-11T22:50:56.322Z,14.50
2023-02-11T22:53:29.207Z,11.30
2023-02-11T22:56:08.306Z,20.05
2023-02-11T22:58:41.023Z,14.73
2023-02-11T23:01:14.391Z,11.88
2023-02-11T23:03:47.102Z,15.73
2023-02-11T23:06:20.053Z,15.02
2023-02-11T23:08:52.805Z,15.88
2023-02-11T23:11:27.072Z,16.30
2023-02-11T23:13:59.689Z,14.23
2023-02-11T23:16:34.383Z,13.68
2023-02-11T23:19:08.607Z,12.70
2023-02-11T23:21:41.643Z,12.73
2023-02-11T23:24:15.377Z,13.07
2023-02-11T23:26:48.696Z,15.55
2023-02-11T23:29:21.342Z,14.45
2023-02-11T23:31:56.972Z,13.95
2023-02-11T23:34:31.130Z,13.40
2023-02-11T23:37:04.422Z,13.88
2023-02-11T23:39:37.315Z,14.82
2023-02-11T23:42:12.265Z,23.23
2023-02-11T23:44:44.799Z,14.05
2023-02-11T23:47:17.637Z,18.13
2023-02-11T23:49:50.077Z,20.98
2023-02-11T23:52:23.023Z,18.65
2023-02-11T23:54:55.736Z,18.67
2023-02-11T23:57:28.932Z,14.85
